Terminal Aerodrome Forecast
Issued by NWS Kansas City/Pleasant Hill, MO

Current Version | Previous Version | Text Only | Print | Product List | Glossary On
Versions: 1 2 3 4 5 6 7 8 9 10 11 12 13 14 15 16 17 18 19
000
FTUS43 KEAX 292329
TAFMCI
TAF
KMCI 292329Z 3000/3024 01006KT P6SM BKN025
      TEMPO 3000/3003 SCT025
     FM300700 04005KT 5SM BR OVC012
     FM301000 05005KT 3SM BR OVC005
     FM301500 07006KT P6SM BKN015
     FM301800 13007KT P6SM SCT025 BKN035=

USA.gov is the U.S. government's official web portal to all federal, state and local government web resources and services.